Cool Ridge, WV (25825)

6:40 PM EST on February 10, 2016 (GMT -0500)
Cool Ridge | | Change Station
CLOSE
Current Station
Personal Weather Station
Location: Raleigh Co., WV
Elevation: 2965 ft
Nearby Weather Stations

Elev 2965 ft 37.66 °N, 81.09 °W | Updated 6 seconds ago

Overcast
Overcast
10.7 °F
Feels Like 11 °F
N
0.0
Wind Variable Wind from SW
Gusts 10.0 mph

Today
High -- | Low -- °F
--% Chance of Precip.
Yesterday
High -- | Low -- °F
Precip. -- in
Pressure 30.03 in
Visibility 4.0 miles
Clouds Few 1900 ft
Few 2700 ft
Overcast 3700 ft
Windchill 11 °F
Dew Point 7 °F
Humidity 85%
Rainfall 0.00 in
Snow Depth Not available.
7:20 AM 5:57 PM
Waxing Crescent, 8% visible
METAR KBKW 102251Z AUTO 30008KT 4SM -SN FEW019 FEW027 OVC037 M10/M14 A2987 RMK AO2 UPB2158E05SNE2158B05 SLP169 P0000 T11001139
Pressure 30.03 in
Visibility 4.0 miles
Clouds Few 1900 ft
Few 2700 ft
Overcast 3700 ft
Windchill 11 °F
Dew Point 7 °F
Humidity 85%
Rainfall 0.00 in
Snow Depth Not available.
7:20 AM 5:57 PM
Waxing Crescent, 8% visible
METAR KBKW 102251Z AUTO 30008KT 4SM -SN FEW019 FEW027 OVC037 M10/M14 A2987 RMK AO2 UPB2158E05SNE2158B05 SLP169 P0000 T11001139

10-Day Weather Forecast

Almanac

Astronomy

Feb. 10, 2016 Rise Set
Actual Time
Civil Twilight
Nautical Twilight
Astronomical Twilight
Moon
Length of Visible Light
Length of Day
Tomorrow will be .
, % of the Moon is Illuminated

Today's Extremes

State Highs State Lows

Community

WunderPhotos

Upload Photos

1,891,935 photos uploaded!

WunderBlog® & News

Nearby

Air Quality

  Air Quality AQ Index Pollutant
Not available.

Snow Depth

Station Depth Elevation

Earthquake Activity

City Distance Mag. Time & Date
Minimum magnitude displayed is 2.5.

Coastal Water Temperatures

Place Temperature

Stations

Nearby Weather Stations

Station Location Temp. Windchill Dew Point Humidity Wind Precip. Elev Updated Type
                   

Watches & Warnings

There are currently no watches in effect.